Time;durP1;ratioP1;P1;durP2;ratioP2;P2;SDS_P1;SDS_P2;PMS_P1;PMS_P2;Temp;Humidity;BMP_temperature;BMP_pressure;BME280_temperature;BME280_humidity;BME280_pressure;Samples;Min_cycle;Max_cycle;Signal;HPM_P1;HPM_P2
2021/12/13 00:02:23;;;;;;;7.20;2.00;;;11.90;99.90;;;;;;6180140;23;20013;-80
2021/12/13 00:05:23;;;;;;;8.98;3.75;;;11.80;99.90;;;;;;6169785;23;20017;-81
2021/12/13 00:07:57;;;;;;;9.55;2.38;;;11.80;99.90;;;;;;6196356;23;20013;-82
2021/12/13 00:10:34;;;;;;;6.80;2.22;;;11.80;99.90;;;;;;6175909;23;20024;-83
2021/12/13 00:13:14;;;;;;;16.58;3.30;;;11.80;99.90;;;;;;6170064;23;20025;-81
2021/12/13 00:15:58;;;;;;;9.20;2.35;;;11.80;99.90;;;;;;6168996;23;20055;-82
2021/12/13 00:18:34;;;;;;;5.75;1.67;;;11.80;99.90;;;;;;6173375;23;20017;-81
2021/12/13 00:21:12;;;;;;;14.68;3.17;;;11.80;99.90;;;;;;6195065;23;20021;-82
2021/12/13 00:23:57;;;;;;;4.07;1.70;;;11.80;99.90;;;;;;6168771;23;20014;-82
2021/12/13 00:26:30;;;;;;;5.00;1.50;;;11.80;99.90;;;;;;6166388;23;20025;-83
2021/12/13 00:28:59;;;;;;;7.85;2.20;;;11.80;99.90;;;;;;6176036;23;20017;-79
2021/12/13 00:31:43;;;;;;;12.10;2.83;;;11.80;99.90;;;;;;6164574;23;20028;-79
2021/12/13 00:34:33;;;;;;;7.30;2.00;;;11.80;99.90;;;;;;6200442;23;20363;-80
2021/12/13 00:37:12;;;;;;;9.90;2.55;;;11.80;99.90;;;;;;6164059;23;20028;-82
2021/12/13 00:39:50;;;;;;;4.80;1.73;;;11.90;99.90;;;;;;6177649;23;20014;-81
2021/12/13 00:42:22;;;;;;;6.55;1.67;;;11.80;99.90;;;;;;6175632;23;20388;-81
2021/12/13 00:44:57;;;;;;;8.32;3.30;;;11.80;99.90;;;;;;6168748;23;20035;-80
2021/12/13 00:47:29;;;;;;;3.10;1.52;;;11.80;99.90;;;;;;6206175;23;20021;-80
2021/12/13 00:50:17;;;;;;;3.13;2.15;;;11.80;99.90;;;;;;6195930;23;20024;-82
2021/12/13 00:52:48;;;;;;;5.85;1.90;;;11.80;99.90;;;;;;6207831;23;20023;-79
2021/12/13 00:55:25;;;;;;;10.63;2.83;;;11.70;99.90;;;;;;6166249;23;20025;-80
2021/12/13 00:58:23;;;;;;;8.80;2.53;;;11.80;99.90;;;;;;6171180;23;20021;-80
2021/12/13 01:01:04;;;;;;;5.65;1.40;;;11.70;99.90;;;;;;6170586;23;20021;-81
2021/12/13 01:03:47;;;;;;;6.38;1.90;;;11.70;99.90;;;;;;6120193;23;20604;-81
2021/12/13 01:06:53;;;;;;;3.67;2.38;;;11.70;99.90;;;;;;6207578;23;20021;-81
2021/12/13 01:09:59;;;;;;;3.22;1.70;;;11.60;99.90;;;;;;6201452;23;20021;-80
2021/12/13 01:12:29;;;;;;;5.43;1.67;;;11.10;99.90;;;;;;6196421;23;20021;-80
2021/12/13 01:15:10;;;;;;;6.07;1.92;;;11.50;99.90;;;;;;6205254;23;20023;-82
2021/12/13 01:17:53;;;;;;;9.38;2.25;;;11.50;99.90;;;;;;6171743;23;20021;-79
2021/12/13 01:20:55;;;;;;;12.30;3.03;;;11.60;99.90;;;;;;6172746;23;20028;-82
2021/12/13 01:23:50;;;;;;;8.32;2.08;;;11.50;99.90;;;;;;6200666;23;20017;-81
2021/12/13 01:26:37;;;;;;;11.95;2.80;;;10.30;99.90;;;;;;6150721;23;20021;-82
2021/12/13 01:29:20;;;;;;;9.48;2.45;;;11.40;99.90;;;;;;6212550;23;20035;-82
2021/12/13 01:31:55;;;;;;;4.65;2.55;;;11.50;99.90;;;;;;6175660;23;20013;-80
2021/12/13 01:34:26;;;;;;;8.35;1.85;;;11.50;99.90;;;;;;6186556;23;20016;-80
2021/12/13 01:37:07;;;;;;;11.07;2.20;;;11.50;99.90;;;;;;6184025;23;20023;-80
2021/12/13 01:39:40;;;;;;;3.88;2.17;;;11.50;99.90;;;;;;6171376;23;20019;-81
2021/12/13 01:42:18;;;;;;;9.45;2.78;;;11.50;99.90;;;;;;6208552;23;20019;-82
2021/12/13 01:44:53;;;;;;;17.30;4.10;;;11.50;99.90;;;;;;6208321;23;20014;-81
2021/12/13 01:47:29;;;;;;;9.30;2.63;;;11.50;99.90;;;;;;6170652;23;20039;-80
2021/12/13 01:50:17;;;;;;;11.10;2.53;;;11.50;99.90;;;;;;6174589;23;20017;-80
2021/12/13 01:52:50;;;;;;;4.60;1.90;;;11.00;99.90;;;;;;6172493;23;20027;-80
2021/12/13 01:55:24;;;;;;;12.15;2.97;;;11.40;99.90;;;;;;6173401;23;20032;-82
2021/12/13 01:58:36;;;;;;;10.10;4.15;;;11.40;99.90;;;;;;6172296;23;20021;-81
2021/12/13 02:01:19;;;;;;;7.28;2.13;;;11.40;99.90;;;;;;6207063;23;20013;-80
2021/12/13 02:04:05;;;;;;;8.07;1.70;;;11.40;99.90;;;;;;6170380;23;20017;-82
2021/12/13 02:06:37;;;;;;;7.45;2.45;;;11.40;99.90;;;;;;6145270;23;20025;-81
2021/12/13 02:09:17;;;;;;;13.95;4.80;;;11.30;99.90;;;;;;6195682;23;20017;-80
2021/12/13 02:11:49;;;;;;;7.57;2.60;;;11.40;99.90;;;;;;6197054;23;20021;-81
2021/12/13 02:14:21;;;;;;;5.43;1.98;;;11.30;99.90;;;;;;6182622;23;20247;-81
2021/12/13 02:20:00;;;;;;;3.10;1.75;;;11.40;99.90;;;;;;6147902;23;20189;-81
2021/12/13 02:22:37;;;;;;;8.30;2.75;;;11.40;99.90;;;;;;6174277;23;20021;-80
2021/12/13 02:25:16;;;;;;;7.88;3.03;;;11.80;99.90;;;;;;6199739;23;20031;-81
2021/12/13 02:27:51;;;;;;;4.80;1.75;;;11.40;99.90;;;;;;6171939;23;20021;-81
2021/12/13 02:30:29;;;;;;;4.93;1.95;;;11.30;99.90;;;;;;6196598;23;20025;-84
2021/12/13 02:32:58;;;;;;;5.70;1.67;;;11.20;99.90;;;;;;6171525;23;20023;-83
2021/12/13 02:35:33;;;;;;;7.53;2.03;;;11.20;99.90;;;;;;6148001;23;20021;-83
2021/12/13 02:38:04;;;;;;;10.23;2.40;;;11.40;99.90;;;;;;6195628;23;20031;-82
2021/12/13 02:40:36;;;;;;;9.57;1.85;;;11.20;99.90;;;;;;6173394;23;20021;-81
2021/12/13 02:43:07;;;;;;;7.95;2.15;;;11.00;99.90;;;;;;6197028;23;20025;-83
2021/12/13 02:45:44;;;;;;;3.38;1.80;;;11.00;99.90;;;;;;6184082;23;20016;-82
2021/12/13 02:48:29;;;;;;;6.68;2.38;;;11.00;99.90;;;;;;6173698;23;20176;-82
2021/12/13 02:51:06;;;;;;;7.30;1.85;;;11.00;99.90;;;;;;6196122;23;20017;-82
2021/12/13 02:53:51;;;;;;;8.40;2.22;;;11.00;99.90;;;;;;6182191;23;20017;-82
2021/12/13 02:56:23;;;;;;;4.53;2.00;;;10.90;99.90;;;;;;6207720;23;20027;-81
2021/12/13 02:58:53;;;;;;;8.98;1.88;;;10.90;99.90;;;;;;6174175;23;20015;-81
2021/12/13 03:01:34;;;;;;;7.40;2.30;;;10.90;99.90;;;;;;6170366;23;20043;-81
2021/12/13 03:04:08;;;;;;;9.10;2.03;;;10.90;99.90;;;;;;6171637;23;20016;-81
2021/12/13 03:06:42;;;;;;;16.38;3.10;;;10.80;99.90;;;;;;6206534;23;20013;-82
2021/12/13 03:09:21;;;;;;;2.92;1.67;;;11.00;99.90;;;;;;6194850;23;20017;-81
2021/12/13 03:11:51;;;;;;;11.10;4.32;;;10.90;99.90;;;;;;6169117;23;20021;-80
2021/12/13 03:14:23;;;;;;;8.10;2.50;;;11.00;99.90;;;;;;6170552;23;20021;-81
2021/12/13 03:17:07;;;;;;;12.70;4.95;;;11.00;99.90;;;;;;6173056;23;20025;-80
2021/12/13 03:19:52;;;;;;;6.82;3.15;;;11.10;99.90;;;;;;6167747;23;20022;-80
2021/12/13 03:22:44;;;;;;;13.73;2.85;;;11.10;99.90;;;;;;6180515;23;20014;-81
2021/12/13 03:25:51;;;;;;;6.18;2.00;;;11.10;99.90;;;;;;6179677;23;20029;-82
2021/12/13 03:28:55;;;;;;;6.38;1.60;;;11.20;99.90;;;;;;6172749;23;20017;-81
2021/12/13 03:31:38;;;;;;;9.20;2.88;;;11.20;99.90;;;;;;6180475;23;20026;-82
2021/12/13 03:34:15;;;;;;;6.93;2.58;;;11.20;99.90;;;;;;6169279;23;20021;-80
2021/12/13 03:36:48;;;;;;;8.07;2.05;;;11.20;99.90;;;;;;6169081;23;20021;-82
2021/12/13 03:39:27;;;;;;;6.60;2.33;;;11.20;99.90;;;;;;6142079;23;20473;-82
2021/12/13 03:41:59;;;;;;;7.57;1.83;;;11.20;99.90;;;;;;6167409;23;20032;-83
2021/12/13 03:44:38;;;;;;;10.57;2.53;;;11.20;99.90;;;;;;6167234;23;20021;-81
2021/12/13 03:47:12;;;;;;;11.45;2.35;;;11.20;99.90;;;;;;6169235;23;20017;-81
2021/12/13 03:49:46;;;;;;;6.07;2.40;;;10.80;99.90;;;;;;6170170;23;20021;-82
2021/12/13 03:52:21;;;;;;;4.53;1.77;;;11.10;99.90;;;;;;6176405;23;20016;-81
2021/12/13 03:54:56;;;;;;;6.70;2.97;;;11.20;99.90;;;;;;6176431;23;20026;-82
2021/12/13 03:57:27;;;;;;;5.22;1.48;;;11.10;99.90;;;;;;6166351;23;20032;-84
2021/12/13 03:59:58;;;;;;;5.63;1.67;;;11.10;99.90;;;;;;6175377;23;20019;-80
2021/12/13 04:02:32;;;;;;;4.03;1.70;;;11.10;99.90;;;;;;6168345;23;20022;-80
2021/12/13 04:05:10;;;;;;;17.58;4.13;;;11.10;99.90;;;;;;6151536;23;20024;-79
2021/12/13 04:07:43;;;;;;;7.03;1.80;;;11.10;99.90;;;;;;6170564;23;20692;-81
2021/12/13 04:10:28;;;;;;;4.88;2.63;;;11.20;99.90;;;;;;6165492;23;20018;-80
2021/12/13 04:13:02;;;;;;;3.42;1.80;;;11.10;99.90;;;;;;6170241;23;20028;-80
2021/12/13 04:15:59;;;;;;;5.55;2.08;;;11.10;99.90;;;;;;6177029;23;20432;-82
2021/12/13 04:19:06;;;;;;;3.65;2.30;;;11.10;99.90;;;;;;6144906;23;20021;-82
2021/12/13 04:21:50;;;;;;;5.00;1.65;;;11.10;99.90;;;;;;6147482;23;20033;-83
2021/12/13 04:24:33;;;;;;;5.82;1.35;;;11.00;99.90;;;;;;6174722;23;20017;-82
2021/12/13 04:27:23;;;;;;;7.00;1.50;;;11.00;99.90;;;;;;6185071;23;20024;-81
2021/12/13 04:29:57;;;;;;;4.47;2.13;;;11.00;99.90;;;;;;6174294;23;20016;-81
2021/12/13 04:32:45;;;;;;;6.68;3.17;;;11.00;99.90;;;;;;6201683;23;20019;-85
2021/12/13 04:35:17;;;;;;;5.13;1.90;;;11.00;99.90;;;;;;6200109;23;20017;-81
2021/12/13 04:37:49;;;;;;;3.00;1.75;;;11.00;99.90;;;;;;6160826;23;20025;-83
2021/12/13 04:40:26;;;;;;;6.05;2.05;;;11.10;99.90;;;;;;6177693;23;20024;-82
2021/12/13 04:43:02;;;;;;;6.53;1.98;;;11.10;99.90;;;;;;6212198;23;20040;-81
2021/12/13 04:45:33;;;;;;;4.93;1.73;;;11.10;99.90;;;;;;6152333;23;20017;-80
2021/12/13 04:48:20;;;;;;;6.22;2.50;;;11.10;99.90;;;;;;6181211;23;20027;-83
2021/12/13 04:51:03;;;;;;;7.47;2.00;;;11.10;99.90;;;;;;6212843;23;20019;-83
2021/12/13 04:53:58;;;;;;;8.68;2.03;;;11.00;99.90;;;;;;6176938;23;20021;-83
2021/12/13 04:56:32;;;;;;;7.63;3.05;;;11.00;99.90;;;;;;6175383;23;20722;-81
2021/12/13 04:59:07;;;;;;;10.45;2.20;;;11.00;99.90;;;;;;6199211;23;20023;-80
2021/12/13 05:01:37;;;;;;;3.83;1.55;;;11.00;99.90;;;;;;6172894;23;20025;-81
2021/12/13 05:04:08;;;;;;;6.05;1.35;;;11.00;99.90;;;;;;6150833;23;20009;-80
2021/12/13 05:06:40;;;;;;;4.38;1.88;;;11.00;99.90;;;;;;6174863;23;20021;-81
2021/12/13 05:09:24;;;;;;;6.57;1.77;;;11.00;99.90;;;;;;6213181;23;20019;-83
2021/12/13 05:12:10;;;;;;;1.63;1.20;;;11.00;99.90;;;;;;6149508;23;20032;-82
2021/12/13 05:14:46;;;;;;;7.25;2.17;;;11.00;99.90;;;;;;6184141;23;20017;-84
2021/12/13 05:17:30;;;;;;;6.55;1.92;;;10.90;99.90;;;;;;6173521;23;20028;-82
2021/12/13 05:20:24;;;;;;;6.25;2.00;;;11.00;99.90;;;;;;6148166;23;20017;-83
2021/12/13 05:22:57;;;;;;;5.75;1.67;;;11.00;99.90;;;;;;6200749;23;20027;-82
2021/12/13 05:25:36;;;;;;;5.65;2.75;;;10.90;99.90;;;;;;6180024;23;20020;-81
2021/12/13 05:28:12;;;;;;;4.03;1.95;;;10.90;99.90;;;;;;6206678;23;20016;-81
2021/12/13 05:30:56;;;;;;;4.93;1.75;;;10.90;99.90;;;;;;6176536;23;20013;-81
2021/12/13 05:33:29;;;;;;;4.90;3.17;;;10.90;99.90;;;;;;6211564;23;20583;-83
2021/12/13 05:36:05;;;;;;;4.95;1.90;;;10.90;99.90;;;;;;6210070;23;20017;-80
2021/12/13 05:38:42;;;;;;;6.07;2.63;;;10.80;99.90;;;;;;6173969;23;20021;-83
2021/12/13 05:41:24;;;;;;;7.93;2.35;;;10.80;99.90;;;;;;6173280;23;20013;-82
2021/12/13 05:43:56;;;;;;;6.07;1.85;;;10.80;99.90;;;;;;6176239;23;20027;-82
2021/12/13 05:46:39;;;;;;;11.57;2.33;;;10.80;99.90;;;;;;6201671;23;20021;-80
2021/12/13 05:49:27;;;;;;;4.97;2.80;;;11.20;99.90;;;;;;6202158;23;20013;-80
2021/12/13 05:52:15;;;;;;;8.93;2.20;;;10.80;99.90;;;;;;6178883;23;20031;-82
2021/12/13 05:54:47;;;;;;;6.90;2.38;;;10.70;99.90;;;;;;6184317;23;20017;-85
2021/12/13 05:57:22;;;;;;;7.95;2.40;;;10.80;99.90;;;;;;6199626;23;20035;-83
2021/12/13 05:59:51;;;;;;;9.63;2.75;;;10.80;99.90;;;;;;6199662;23;20025;-80
2021/12/13 06:02:55;;;;;;;4.68;2.10;;;10.80;99.90;;;;;;6174851;23;20029;-81
2021/12/13 06:05:37;;;;;;;5.15;2.10;;;10.90;99.90;;;;;;6181492;23;20009;-82
2021/12/13 06:08:13;;;;;;;5.13;1.98;;;10.80;99.90;;;;;;6199832;23;20023;-79
2021/12/13 06:10:59;;;;;;;4.13;2.03;;;11.00;99.90;;;;;;6195073;23;20029;-81
2021/12/13 06:13:43;;;;;;;8.45;2.05;;;11.00;99.90;;;;;;6194733;23;20031;-81
2021/12/13 06:16:18;;;;;;;11.07;4.05;;;11.00;99.90;;;;;;6197046;23;20013;-82
2021/12/13 06:18:57;;;;;;;4.88;2.20;;;11.10;99.90;;;;;;6196512;23;20031;-82
2021/12/13 06:21:47;;;;;;;5.40;1.70;;;11.10;99.90;;;;;;6195183;23;20020;-80
2021/12/13 06:24:30;;;;;;;6.85;2.20;;;11.20;99.90;;;;;;6197965;23;20013;-81
2021/12/13 06:27:14;;;;;;;6.72;2.10;;;11.20;99.90;;;;;;6147462;23;20017;-80
2021/12/13 06:29:52;;;;;;;7.15;2.53;;;11.20;99.90;;;;;;6195974;23;20027;-81
2021/12/13 06:32:25;;;;;;;9.25;1.92;;;11.20;99.90;;;;;;6168757;23;20025;-81
2021/12/13 06:34:54;;;;;;;8.05;1.92;;;11.30;99.90;;;;;;6197140;23;20025;-81
2021/12/13 06:37:33;;;;;;;4.22;1.42;;;11.30;99.90;;;;;;6169674;23;20028;-81
2021/12/13 06:40:26;;;;;;;3.88;1.77;;;11.30;99.90;;;;;;6172618;23;20017;-82
2021/12/13 06:43:00;;;;;;;8.60;2.78;;;11.30;99.90;;;;;;6203898;23;20036;-81
2021/12/13 06:45:35;;;;;;;5.30;1.67;;;11.30;99.90;;;;;;6146517;23;20035;-79
2021/12/13 06:48:06;;;;;;;5.78;2.33;;;11.40;99.90;;;;;;6170661;23;20309;-82
2021/12/13 06:50:38;;;;;;;6.22;3.22;;;11.30;99.90;;;;;;6200333;23;20017;-80
2021/12/13 06:53:09;;;;;;;5.22;1.92;;;11.30;99.90;;;;;;6173694;23;20036;-80
2021/12/13 06:55:38;;;;;;;9.80;1.83;;;11.30;99.90;;;;;;6208282;23;20019;-81
2021/12/13 06:58:20;;;;;;;4.68;1.73;;;11.30;99.90;;;;;;6196996;23;20031;-81
2021/12/13 07:00:57;;;;;;;4.05;1.83;;;11.40;99.90;;;;;;6171152;23;20455;-80
2021/12/13 07:03:32;;;;;;;7.55;1.52;;;11.40;99.90;;;;;;6197614;23;20028;-81
2021/12/13 07:06:05;;;;;;;4.43;1.60;;;11.40;99.90;;;;;;6201409;23;20013;-80
2021/12/13 07:08:37;;;;;;;5.07;1.67;;;11.40;99.90;;;;;;6185407;23;20037;-82
2021/12/13 07:11:17;;;;;;;1.92;1.50;;;11.40;99.90;;;;;;6184820;23;20021;-82
2021/12/13 07:14:01;;;;;;;4.63;2.13;;;11.30;99.90;;;;;;6172886;23;20017;-82
2021/12/13 07:16:36;;;;;;;8.50;2.03;;;11.40;99.90;;;;;;6171059;23;20023;-82
2021/12/13 07:19:22;;;;;;;5.18;3.15;;;11.40;99.90;;;;;;6195933;23;20017;-81
2021/12/13 07:22:05;;;;;;;3.00;1.48;;;11.40;99.90;;;;;;6177661;23;20025;-78
2021/12/13 07:24:51;;;;;;;8.80;2.63;;;11.30;99.90;;;;;;6097011;23;20017;-81
2021/12/13 07:27:40;;;;;;;4.22;1.80;;;11.30;99.90;;;;;;6122291;23;20036;-80
2021/12/13 07:30:30;;;;;;;4.90;2.00;;;11.30;99.90;;;;;;6171375;23;20021;-79
2021/12/13 07:33:07;;;;;;;3.97;1.80;;;11.50;99.90;;;;;;6141503;23;20032;-81
2021/12/13 07:35:48;;;;;;;3.50;1.98;;;11.30;99.90;;;;;;6141153;23;20017;-80
2021/12/13 07:38:18;;;;;;;9.98;2.83;;;11.30;99.90;;;;;;6118217;23;20017;-85
2021/12/13 07:40:56;;;;;;;7.35;2.63;;;11.30;99.90;;;;;;6117509;23;20028;-84
2021/12/13 07:43:43;;;;;;;4.93;3.45;;;11.30;99.90;;;;;;6166920;23;20017;-80
2021/12/13 07:46:30;;;;;;;4.63;2.10;;;11.30;99.90;;;;;;6117894;23;20531;-85
2021/12/13 07:54:33;;;;;;;;;;;;;;;;;;;;;
2021/12/13 08:12:25;;;;;;;4.22;2.40;;;11.50;99.90;;;;;;5077201;28;20393;-93
2021/12/13 08:15:42;;;;;;;9.20;2.28;;;11.40;99.90;;;;;;5051029;28;20063;-94
2021/12/13 08:18:38;;;;;;;5.68;2.30;;;11.30;99.90;;;;;;5066882;28;20368;-95
2021/12/13 08:21:25;;;;;;;8.38;1.98;;;10.80;99.90;;;;;;5080426;28;20074;-92
2021/12/13 08:24:02;;;;;;;8.88;2.88;;;11.30;99.90;;;;;;5067752;28;20063;-94
2021/12/13 08:26:59;;;;;;;10.43;3.30;;;11.30;99.90;;;;;;5035381;28;20052;-96
2021/12/13 08:30:07;;;;;;;6.53;2.10;;;11.40;99.90;;;;;;5056668;28;20025;-95
2021/12/13 08:33:24;;;;;;;11.07;2.63;;;11.40;99.90;;;;;;5020077;28;20069;-96
2021/12/13 08:36:28;;;;;;;10.18;2.50;;;11.30;99.90;;;;;;5017626;28;20060;-94
2021/12/13 08:39:33;;;;;;;9.98;2.97;;;11.40;99.90;;;;;;5026028;28;20057;-92
2021/12/13 08:42:31;;;;;;;11.02;3.33;;;11.40;99.90;;;;;;5040459;28;20053;-90
2021/12/13 08:45:27;;;;;;;10.27;3.20;;;11.50;99.90;;;;;;5026278;28;20399;-92
2021/12/13 08:48:21;;;;;;;6.60;3.03;;;12.40;99.90;;;;;;4999771;28;20041;-94
2021/12/13 08:51:29;;;;;;;6.38;2.97;;;11.50;99.90;;;;;;5044949;28;20381;-93
2021/12/13 08:54:17;;;;;;;;;;;11.50;99.90;;;;;;5006335;28;20037;-93
2021/12/13 08:57:03;;;;;;;13.75;4.18;;;10.80;99.90;;;;;;5019884;28;19921;-93
2021/12/13 08:59:34;;;;;;;14.40;3.53;;;11.50;99.90;;;;;;5003972;28;20044;-90
2021/12/13 09:02:11;;;;;;;11.38;3.80;;;11.60;99.90;;;;;;5016085;28;20063;-94
2021/12/13 09:43:19;;;;;;;26.05;5.18;;;11.70;99.90;;;;;;5029892;28;20050;-96
2021/12/13 09:46:14;;;;;;;9.45;2.95;;;11.80;99.90;;;;;;5012959;28;20038;-90
2021/12/13 09:48:50;;;;;;;6.28;2.03;;;11.70;99.90;;;;;;4996416;28;20417;-95
2021/12/13 09:51:34;;;;;;;7.75;2.70;;;11.80;99.90;;;;;;4996529;28;20050;-96
2021/12/13 09:58:21;;;;;;;13.27;2.88;;;11.80;99.90;;;;;;4999072;28;20480;-96
2021/12/13 10:01:21;;;;;;;11.18;1.98;;;12.00;99.90;;;;;;5014564;28;20064;-93
2021/12/13 10:04:04;;;;;;;8.88;3.13;;;11.80;99.90;;;;;;5008968;28;20053;-95
2021/12/13 10:07:00;;;;;;;21.05;4.65;;;11.90;99.90;;;;;;4996164;28;20410;-91
2021/12/13 10:13:24;;;;;;;17.30;3.65;;;11.90;99.90;;;;;;5018177;28;20046;-96
2021/12/13 10:16:09;;;;;;;13.43;2.40;;;11.90;99.90;;;;;;5015234;28;20053;-96
2021/12/13 10:19:25;;;;;;;7.97;1.90;;;11.90;99.90;;;;;;5015273;28;20124;-96
2021/12/13 10:22:05;;;;;;;6.18;2.40;;;11.80;99.90;;;;;;5007212;28;20040;-94
2021/12/13 10:25:27;;;;;;;3.50;2.05;;;11.80;99.90;;;;;;4986444;28;20034;-94
2021/12/13 10:28:31;;;;;;;3.33;1.70;;;11.80;99.90;;;;;;5000326;28;20057;-94
2021/12/13 10:31:18;;;;;;;3.90;1.70;;;11.50;99.90;;;;;;4993954;28;20056;-94
2021/12/13 10:34:47;;;;;;;6.82;1.45;;;11.70;99.90;;;;;;5009167;28;20481;-95
2021/12/13 10:37:22;;;;;;;2.70;1.40;;;11.50;99.90;;;;;;4998702;28;20050;-94
2021/12/13 10:44:05;;;;;;;6.82;1.83;;;11.70;99.90;;;;;;5049759;28;20051;-94
2021/12/13 11:08:54;;;;;;;11.25;4.13;;;11.80;99.90;;;;;;5064961;28;20041;-96
2021/12/13 11:12:04;;;;;;;5.68;2.63;;;11.90;99.90;;;;;;5033483;28;20067;-93
2021/12/13 11:14:53;;;;;;;2.70;1.95;;;12.60;99.90;;;;;;5050509;28;20053;-93
2021/12/13 11:17:37;;;;;;;4.40;1.23;;;12.00;99.90;;;;;;5063239;28;20044;-94
2021/12/13 11:20:15;;;;;;;5.93;1.52;;;12.00;99.90;;;;;;5034120;28;20055;-95
2021/12/13 11:22:49;;;;;;;4.75;1.35;;;12.00;99.90;;;;;;5006853;28;20064;-94
2021/12/13 11:29:48;;;;;;;;;;;;;;;;;;;;;
2021/12/13 11:33:31;;;;;;;2.72;1.55;;;13.20;99.90;;;;;;4939420;28;20045;-83
2021/12/13 11:37:43;;;;;;;1.60;1.50;;;12.20;99.90;;;;;;4898543;29;20060;-84
2021/12/13 11:49:15;;;;;;;7.93;3.05;;;12.60;99.90;;;;;;4876668;29;20063;-85
2021/12/13 11:58:00;;;;;;;;;;;;;;;;;;;;;
2021/12/13 12:22:00;;;;;;;6.43;1.40;;;12.40;99.90;;;;;;4792982;30;20058;-85
2021/12/13 12:25:25;;;;;;;;;;;;;;;;;;;;;
2021/12/13 12:33:58;;;;;;;;;;;;;;;;;;;;;
2021/12/13 12:38:16;;;;;;;7.63;2.30;;;12.30;99.90;;;;;;4850845;29;20062;-87
2021/12/13 12:46:37;;;;;;;3.50;1.27;;;12.10;99.90;;;;;;4791469;29;20071;-87
2021/12/13 12:49:46;;;;;;;;;;;;;;;;;;;;;
2021/12/13 12:57:45;;;;;;;;;;;;;;;;;;;;;
2021/12/13 13:01:39;;;;;;;7.75;1.38;;;12.10;99.90;;;;;;4769947;30;20071;-88
2021/12/13 13:09:29;;;;;;;;;;;;;;;;;;;;;
2021/12/13 13:12:38;;;;;;;6.88;2.17;;;11.70;99.90;;;;;;4844199;29;20073;-89
2021/12/13 13:15:30;;;;;;;7.53;1.58;;;12.20;99.90;;;;;;4847672;29;20076;-84
2021/12/13 13:18:14;;;;;;;4.05;2.17;;;12.30;99.90;;;;;;4909119;29;20049;-84
2021/12/13 13:21:02;;;;;;;3.75;2.25;;;12.30;99.90;;;;;;4894413;29;20061;-84
2021/12/13 13:23:47;;;;;;;6.40;3.15;;;12.40;99.90;;;;;;4895373;29;20044;-81
2021/12/13 13:26:22;;;;;;;3.75;2.20;;;12.40;99.90;;;;;;4848746;29;20131;-82
2021/12/13 13:28:58;;;;;;;5.75;1.42;;;12.40;99.90;;;;;;4960475;29;20047;-84
2021/12/13 13:31:50;;;;;;;4.68;1.55;;;12.40;99.90;;;;;;4973052;29;20066;-83
2021/12/13 13:34:29;;;;;;;4.18;1.27;;;12.60;99.90;;;;;;4941858;29;20081;-85
2021/12/13 13:37:13;;;;;;;3.38;1.52;;;12.40;99.90;;;;;;4942654;29;20055;-82
2021/12/13 13:39:53;;;;;;;8.63;1.52;;;12.40;99.90;;;;;;4956999;29;20135;-82
2021/12/13 13:42:32;;;;;;;4.28;1.42;;;12.40;99.90;;;;;;4954909;29;20144;-84
2021/12/13 13:45:21;;;;;;;4.03;1.60;;;12.40;99.90;;;;;;4955280;29;20051;-89
2021/12/13 13:48:02;;;;;;;2.33;1.30;;;12.30;99.90;;;;;;4938555;29;20051;-84
2021/12/13 13:50:46;;;;;;;5.05;1.58;;;12.50;99.90;;;;;;4969837;29;20606;-82
2021/12/13 13:53:43;;;;;;;3.63;1.35;;;12.30;99.90;;;;;;4951695;29;20059;-85
2021/12/13 13:56:22;;;;;;;4.13;1.58;;;12.10;99.90;;;;;;4968565;29;20043;-83
2021/12/13 13:58:55;;;;;;;2.38;1.10;;;12.30;99.90;;;;;;4923388;29;20069;-84
2021/12/13 14:01:47;;;;;;;5.80;1.40;;;12.20;99.90;;;;;;4955045;29;20259;-83
2021/12/13 14:04:43;;;;;;;6.88;1.65;;;12.10;99.90;;;;;;4973021;29;20035;-83
2021/12/13 14:07:22;;;;;;;3.88;1.40;;;12.20;99.90;;;;;;4970898;28;20061;-85
2021/12/13 14:10:08;;;;;;;1.27;1.15;;;11.10;99.90;;;;;;4939597;29;20169;-83
2021/12/13 14:12:51;;;;;;;2.05;1.10;;;11.50;99.90;;;;;;4983476;28;20051;-83
2021/12/13 14:15:31;;;;;;;4.22;2.45;;;12.30;99.90;;;;;;4975827;28;20043;-82
2021/12/13 14:18:16;;;;;;;5.25;1.42;;;12.20;99.90;;;;;;4952573;29;20065;-86
2021/12/13 14:20:53;;;;;;;4.82;1.30;;;12.10;99.90;;;;;;4951526;29;20063;-81
2021/12/13 14:23:37;;;;;;;2.42;1.20;;;12.20;99.90;;;;;;4956550;28;20053;-81
2021/12/13 14:26:12;;;;;;;4.18;1.15;;;12.20;99.90;;;;;;4935159;29;20073;-82
2021/12/13 14:28:56;;;;;;;2.55;1.50;;;12.50;99.90;;;;;;4932466;29;20051;-82
2021/12/13 14:31:45;;;;;;;1.25;1.08;;;12.10;99.90;;;;;;4953637;29;20047;-84
2021/12/13 14:34:46;;;;;;;4.05;1.17;;;12.00;99.90;;;;;;4951030;29;20317;-84
2021/12/13 14:38:22;;;;;;;4.53;1.45;;;12.10;99.90;;;;;;4952905;29;20066;-83
2021/12/13 14:42:05;;;;;;;;;;;;;;;;;;;;;
2021/12/13 14:45:30;;;;;;;8.52;2.20;;;12.10;99.90;;;;;;4952295;29;20059;-83
2021/12/13 14:48:50;;;;;;;6.00;2.25;;;12.10;99.90;;;;;;4967618;29;20059;-83
2021/12/13 14:52:21;;;;;;;;;;;;;;;;;;;;;
2021/12/13 14:55:08;;;;;;;4.13;1.90;;;12.10;99.90;;;;;;4852938;29;20081;-84
2021/12/13 14:58:38;;;;;;;7.25;1.80;;;12.00;99.90;;;;;;4843410;29;20065;-87
2021/12/13 15:01:31;;;;;;;;;;;;;;;;;;;;;
2021/12/13 15:04:50;;;;;;;3.83;1.80;;;12.00;99.90;;;;;;4881396;29;19919;-83
2021/12/13 15:07:40;;;;;;;8.15;2.13;;;12.00;99.90;;;;;;4851441;29;20184;-82
2021/12/13 15:10:30;;;;;;;8.73;2.50;;;11.90;99.90;;;;;;4877246;29;20067;-86
2021/12/13 15:13:41;;;;;;;4.22;2.63;;;12.80;99.90;;;;;;4878798;29;20028;-84
2021/12/13 15:16:18;;;;;;;7.03;3.45;;;11.40;99.90;;;;;;4930055;29;20046;-84
2021/12/13 15:19:06;;;;;;;5.90;3.00;;;11.90;99.90;;;;;;4932240;29;20047;-86
2021/12/13 15:22:15;;;;;;;6.80;2.75;;;11.90;99.90;;;;;;4930868;29;20070;-83
2021/12/13 15:25:01;;;;;;;;;;;;;;;;;;;;;
2021/12/13 15:28:15;;;;;;;4.35;2.13;;;12.00;99.90;;;;;;4897618;29;20049;-84
2021/12/13 15:30:52;;;;;;;6.55;2.28;;;11.90;99.90;;;;;;4892025;29;20048;-87
2021/12/13 15:33:38;;;;;;;4.15;2.00;;;11.90;99.90;;;;;;4878689;29;20500;-83
2021/12/13 15:36:24;;;;;;;9.80;2.45;;;11.90;99.90;;;;;;4894763;29;20061;-84
2021/12/13 15:39:26;;;;;;;2.90;1.90;;;11.80;99.90;;;;;;4907251;29;20079;-86
2021/12/13 15:42:41;;;;;;;;;;;;;;;;;;;;;
2021/12/13 15:45:35;;;;;;;5.63;1.83;;;11.80;99.90;;;;;;4927261;29;20337;-83
2021/12/13 15:51:30;;;;;;;2.95;2.03;;;11.70;99.90;;;;;;4926484;29;20047;-83
2021/12/13 15:54:11;;;;;;;4.40;2.10;;;11.70;99.90;;;;;;4914913;29;20059;-84
2021/12/13 15:56:47;;;;;;;4.18;2.00;;;11.70;99.90;;;;;;4943533;29;20051;-85
2021/12/13 15:59:26;;;;;;;11.48;3.75;;;11.60;99.90;;;;;;4928146;29;20054;-85
2021/12/13 16:02:16;;;;;;;7.47;3.00;;;11.60;99.90;;;;;;4942888;29;20232;-84
2021/12/13 16:04:55;;;;;;;16.92;4.90;;;11.70;99.90;;;;;;4909488;29;20213;-83
2021/12/13 16:07:34;;;;;;;7.03;3.35;;;11.60;99.90;;;;;;4928773;29;20055;-86
2021/12/13 16:10:23;;;;;;;8.20;4.45;;;11.60;99.90;;;;;;4927642;29;20071;-83
2021/12/13 16:12:56;;;;;;;10.63;3.83;;;11.60;99.90;;;;;;4915698;29;20047;-83
2021/12/13 16:15:41;;;;;;;7.00;4.00;;;11.60;99.90;;;;;;4943020;29;20052;-83
2021/12/13 16:18:11;;;;;;;5.07;2.33;;;11.60;99.90;;;;;;4915736;29;20044;-81
2021/12/13 16:20:50;;;;;;;5.93;2.42;;;11.50;99.90;;;;;;4930551;29;20050;-85
2021/12/13 16:23:23;;;;;;;5.13;2.80;;;11.60;99.90;;;;;;4942243;29;20052;-82
2021/12/13 16:26:05;;;;;;;6.63;2.78;;;11.50;99.90;;;;;;4912673;29;20051;-89
2021/12/13 16:28:46;;;;;;;5.10;2.70;;;11.40;99.90;;;;;;4946511;29;20059;-88
2021/12/13 16:31:27;;;;;;;9.63;2.92;;;11.50;99.90;;;;;;4964888;28;20062;-89
2021/12/13 16:34:11;;;;;;;6.38;2.60;;;11.50;99.90;;;;;;4931894;29;20051;-90
2021/12/13 16:36:55;;;;;;;6.65;2.58;;;11.40;99.90;;;;;;4951399;29;20127;-82
2021/12/13 16:39:44;;;;;;;10.73;3.47;;;11.40;99.90;;;;;;4949697;29;20062;-83
2021/12/13 16:42:17;;;;;;;5.07;2.50;;;11.40;99.90;;;;;;4949168;29;20054;-87
2021/12/13 16:45:06;;;;;;;4.20;2.38;;;11.40;99.90;;;;;;4967699;29;20047;-84
2021/12/13 16:47:37;;;;;;;8.32;3.17;;;11.40;99.90;;;;;;4968582;29;20039;-84
2021/12/13 16:50:11;;;;;;;5.15;2.90;;;11.40;99.90;;;;;;4933966;29;20074;-83
2021/12/13 16:52:40;;;;;;;11.55;2.85;;;11.50;99.90;;;;;;4962954;28;20058;-85
2021/12/13 16:55:16;;;;;;;8.90;3.05;;;11.40;99.90;;;;;;4966824;29;20035;-84
2021/12/13 16:58:37;;;;;;;5.57;2.45;;;11.40;99.90;;;;;;4964456;29;20043;-83
2021/12/13 17:05:55;;;;;;;;;;;;;;;;;;;;;
2021/12/13 17:09:24;;;;;;;9.57;4.55;;;11.30;99.90;;;;;;4858645;29;20085;-87
2021/12/13 17:12:31;;;;;;;15.40;3.55;;;11.20;99.90;;;;;;4890001;29;20067;-82
2021/12/13 17:15:32;;;;;;;9.98;3.13;;;11.10;99.90;;;;;;4893404;29;20060;-84
2021/12/13 17:18:57;;;;;;;5.18;2.45;;;11.20;99.90;;;;;;4908844;29;20065;-86
2021/12/13 17:21:33;;;;;;;12.23;2.70;;;11.30;99.90;;;;;;4905512;29;20052;-82
2021/12/13 17:24:10;;;;;;;8.52;2.67;;;11.10;99.90;;;;;;4891731;29;20060;-79